Terminal Aerodrome Forecast
Issued by NWS Albany, NY

Home | Current Version | Previous Version | Text Only | Print | Product List | Glossary On
Versions: 1 2 3 4 5 6 7 8 9 10 11 12 13 14 15 16 17
000
FTUS41 KALY 270900 AAA
TAFGFL
TAF AMD
KGFL 270911Z 2709/2806 VRB04KT P6SM BKN080
     FM271400 19006KT P6SM BKN060
     FM271700 20007KT P6SM VCSH OVC060
     FM272000 29006KT P6SM SCT060 BKN200
     FM280000 31004KT P6SM BKN200=

USA.gov is the U.S. government's official web portal to all federal, state and local government web resources and services.